sensor_id;sensor_type;location;lat;lon;timestamp;pressure;altitude;pressure_sealevel;temperature;humidity
10718;BME280;13513;42.700;23.124;2023-01-28T00:01:35;92251.73;;;0.82;100.00
10718;BME280;13513;42.700;23.124;2023-01-28T00:04:06;92247.05;;;0.81;100.00
10718;BME280;13513;42.700;23.124;2023-01-28T00:06:36;92245.03;;;0.83;100.00
10718;BME280;13513;42.700;23.124;2023-01-28T00:09:07;92244.94;;;0.81;100.00
10718;BME280;13513;42.700;23.124;2023-01-28T00:11:37;92247.69;;;0.92;100.00
10718;BME280;13513;42.700;23.124;2023-01-28T00:14:14;92251.44;;;0.81;100.00
10718;BME280;13513;42.700;23.124;2023-01-28T00:16:41;92251.19;;;0.95;100.00
10718;BME280;13513;42.700;23.124;2023-01-28T00:19:11;92252.20;;;0.94;100.00
10718;BME280;13513;42.700;23.124;2023-01-28T00:21:43;92254.56;;;1.02;100.00
10718;BME280;13513;42.700;23.124;2023-01-28T00:24:12;92256.94;;;1.10;100.00
10718;BME280;13513;42.700;23.124;2023-01-28T00:26:43;92263.00;;;1.20;100.00
10718;BME280;13513;42.700;23.124;2023-01-28T00:29:14;92264.02;;;1.19;100.00
10718;BME280;13513;42.700;23.124;2023-01-28T00:31:45;92264.35;;;1.29;100.00
10718;BME280;13513;42.700;23.124;2023-01-28T00:34:15;92270.31;;;1.14;100.00
10718;BME280;13513;42.700;23.124;2023-01-28T00:36:45;92264.63;;;1.14;100.00
10718;BME280;13513;42.700;23.124;2023-01-28T00:39:16;92266.64;;;1.12;100.00
10718;BME280;13513;42.700;23.124;2023-01-28T00:41:47;92269.97;;;1.04;100.00
10718;BME280;13513;42.700;23.124;2023-01-28T00:44:18;92273.78;;;1.01;100.00
10718;BME280;13513;42.700;23.124;2023-01-28T00:46:49;92269.12;;;1.16;100.00
10718;BME280;13513;42.700;23.124;2023-01-28T00:49:20;92273.47;;;1.07;100.00
10718;BME280;13513;42.700;23.124;2023-01-28T00:51:53;92275.14;;;1.10;100.00
10718;BME280;13513;42.700;23.124;2023-01-28T00:54:26;92278.58;;;0.98;100.00
10718;BME280;13513;42.700;23.124;2023-01-28T00:56:58;92281.78;;;1.00;100.00
10718;BME280;13513;42.700;23.124;2023-01-28T00:59:28;92280.17;;;1.05;100.00
10718;BME280;13513;42.700;23.124;2023-01-28T01:01:59;92275.77;;;0.99;100.00
10718;BME280;13513;42.700;23.124;2023-01-28T01:04:30;92280.63;;;0.89;100.00
10718;BME280;13513;42.700;23.124;2023-01-28T01:07:00;92284.19;;;1.01;100.00
10718;BME280;13513;42.700;23.124;2023-01-28T01:09:31;92285.19;;;0.94;100.00
10718;BME280;13513;42.700;23.124;2023-01-28T01:12:02;92280.08;;;0.96;100.00
10718;BME280;13513;42.700;23.124;2023-01-28T01:14:34;92279.77;;;1.08;100.00
10718;BME280;13513;42.700;23.124;2023-01-28T01:17:05;92284.22;;;1.17;100.00
10718;BME280;13513;42.700;23.124;2023-01-28T01:19:37;92285.36;;;1.34;100.00
10718;BME280;13513;42.700;23.124;2023-01-28T01:22:08;92283.42;;;1.45;100.00
10718;BME280;13513;42.700;23.124;2023-01-28T01:24:38;92281.72;;;1.41;100.00
10718;BME280;13513;42.700;23.124;2023-01-28T01:27:09;92286.19;;;1.50;100.00
10718;BME280;13513;42.700;23.124;2023-01-28T01:29:39;92280.20;;;1.43;100.00
10718;BME280;13513;42.700;23.124;2023-01-28T01:32:10;92283.81;;;1.20;100.00
10718;BME280;13513;42.700;23.124;2023-01-28T01:34:41;92288.61;;;1.23;100.00
10718;BME280;13513;42.700;23.124;2023-01-28T01:37:12;92285.75;;;1.09;100.00
10718;BME280;13513;42.700;23.124;2023-01-28T01:39:43;92292.28;;;1.31;100.00
10718;BME280;13513;42.700;23.124;2023-01-28T01:42:15;92291.12;;;1.20;100.00
10718;BME280;13513;42.700;23.124;2023-01-28T01:45:06;92287.56;;;1.08;100.00
10718;BME280;13513;42.700;23.124;2023-01-28T01:48:04;92291.12;;;1.14;100.00
10718;BME280;13513;42.700;23.124;2023-01-28T01:50:42;92291.36;;;1.12;100.00
10718;BME280;13513;42.700;23.124;2023-01-28T01:53:19;92289.94;;;1.16;100.00
10718;BME280;13513;42.700;23.124;2023-01-28T01:55:52;92291.67;;;1.07;100.00
10718;BME280;13513;42.700;23.124;2023-01-28T01:58:25;92295.91;;;0.95;100.00
10718;BME280;13513;42.700;23.124;2023-01-28T02:00:57;92291.91;;;0.86;100.00
10718;BME280;13513;42.700;23.124;2023-01-28T02:03:37;92296.34;;;0.85;100.00
10718;BME280;13513;42.700;23.124;2023-01-28T02:06:09;92292.66;;;0.77;100.00
10718;BME280;13513;42.700;23.124;2023-01-28T02:08:40;92298.94;;;0.72;100.00
10718;BME280;13513;42.700;23.124;2023-01-28T02:11:13;92297.67;;;0.59;100.00
10718;BME280;13513;42.700;23.124;2023-01-28T02:13:46;92300.38;;;0.55;100.00
10718;BME280;13513;42.700;23.124;2023-01-28T02:16:16;92299.19;;;0.51;100.00
10718;BME280;13513;42.700;23.124;2023-01-28T02:18:48;92294.17;;;0.56;100.00
10718;BME280;13513;42.700;23.124;2023-01-28T02:21:37;92301.88;;;0.54;100.00
10718;BME280;13513;42.700;23.124;2023-01-28T02:27:16;92305.97;;;0.52;100.00
10718;BME280;13513;42.700;23.124;2023-01-28T02:30:05;92299.19;;;0.51;100.00
10718;BME280;13513;42.700;23.124;2023-01-28T02:35:19;92302.37;;;0.53;100.00
10718;BME280;13513;42.700;23.124;2023-01-28T02:37:54;92295.18;;;0.42;100.00
10718;BME280;13513;42.700;23.124;2023-01-28T02:40:25;92301.80;;;0.45;100.00
10718;BME280;13513;42.700;23.124;2023-01-28T02:42:56;92303.87;;;0.45;100.00
10718;BME280;13513;42.700;23.124;2023-01-28T02:45:31;92304.09;;;0.24;100.00
10718;BME280;13513;42.700;23.124;2023-01-28T02:48:19;92301.69;;;0.36;100.00
10718;BME280;13513;42.700;23.124;2023-01-28T02:50:54;92300.70;;;0.43;100.00
10718;BME280;13513;42.700;23.124;2023-01-28T02:53:50;92303.28;;;0.50;100.00
10718;BME280;13513;42.700;23.124;2023-01-28T02:58:57;92299.48;;;0.33;100.00
10718;BME280;13513;42.700;23.124;2023-01-28T03:01:31;92301.69;;;0.36;100.00
10718;BME280;13513;42.700;23.124;2023-01-28T03:04:04;92295.70;;;0.35;100.00
10718;BME280;13513;42.700;23.124;2023-01-28T03:06:44;92301.97;;;0.37;100.00
10718;BME280;13513;42.700;23.124;2023-01-28T03:09:15;92306.39;;;0.36;100.00
10718;BME280;13513;42.700;23.124;2023-01-28T03:12:10;92309.59;;;0.45;100.00
10718;BME280;13513;42.700;23.124;2023-01-28T03:15:02;92312.89;;;0.30;100.00
10718;BME280;13513;42.700;23.124;2023-01-28T03:18:08;92316.56;;;0.25;100.00
10718;BME280;13513;42.700;23.124;2023-01-28T03:21:02;92322.16;;;0.41;100.00
10718;BME280;13513;42.700;23.124;2023-01-28T03:23:59;92317.17;;;0.40;100.00
10718;BME280;13513;42.700;23.124;2023-01-28T03:26:57;92324.16;;;0.52;100.00
10718;BME280;13513;42.700;23.124;2023-01-28T03:29:46;92320.45;;;0.57;100.00
10718;BME280;13513;42.700;23.124;2023-01-28T03:32:34;92327.15;;;0.69;100.00
10718;BME280;13513;42.700;23.124;2023-01-28T03:35:22;92322.16;;;0.41;100.00
10718;BME280;13513;42.700;23.124;2023-01-28T03:38:11;92325.64;;;0.57;100.00
10718;BME280;13513;42.700;23.124;2023-01-28T03:40:57;92322.77;;;0.50;100.00
10718;BME280;13513;42.700;23.124;2023-01-28T03:43:25;92327.75;;;0.64;100.00
10718;BME280;13513;42.700;23.124;2023-01-28T03:45:56;92325.55;;;0.61;100.00
10718;BME280;13513;42.700;23.124;2023-01-28T03:48:28;92329.34;;;0.78;100.00
10718;BME280;13513;42.700;23.124;2023-01-28T03:50:59;92334.23;;;0.71;100.00
10718;BME280;13513;42.700;23.124;2023-01-28T03:53:30;92263.13;;;0.20;100.00
10718;BME280;13513;42.700;23.124;2023-01-28T03:56:00;92331.83;;;0.82;100.00
10718;BME280;13513;42.700;23.124;2023-01-28T03:58:31;92338.92;;;0.78;100.00
10718;BME280;13513;42.700;23.124;2023-01-28T04:01:18;92335.85;;;0.72;100.00
10718;BME280;13513;42.700;23.124;2023-01-28T04:03:49;92337.56;;;0.62;100.00
10718;BME280;13513;42.700;23.124;2023-01-28T04:06:21;92342.05;;;0.58;100.00
10718;BME280;13513;42.700;23.124;2023-01-28T04:08:52;92340.45;;;0.57;100.00
10718;BME280;13513;42.700;23.124;2023-01-28T04:11:22;92335.24;;;0.50;100.00
10718;BME280;13513;42.700;23.124;2023-01-28T04:13:53;92341.26;;;0.44;100.00
10718;BME280;13513;42.700;23.124;2023-01-28T04:16:24;92349.13;;;0.60;100.00
10718;BME280;13513;42.700;23.124;2023-01-28T04:18:55;92347.66;;;0.48;100.00
10718;BME280;13513;42.700;23.124;2023-01-28T04:21:26;92353.23;;;0.52;100.00
10718;BME280;13513;42.700;23.124;2023-01-28T04:23:56;92357.75;;;0.41;100.00
10718;BME280;13513;42.700;23.124;2023-01-28T04:26:27;92357.25;;;0.54;100.00
10718;BME280;13513;42.700;23.124;2023-01-28T04:28:57;92357.33;;;0.44;100.00
10718;BME280;13513;42.700;23.124;2023-01-28T04:31:29;92359.74;;;0.65;100.00
10718;BME280;13513;42.700;23.124;2023-01-28T04:34:00;92356.22;;;0.75;100.00
10718;BME280;13513;42.700;23.124;2023-01-28T04:36:29;92361.33;;;0.72;100.00
10718;BME280;13513;42.700;23.124;2023-01-28T04:39:00;92361.44;;;0.81;100.00
10718;BME280;13513;42.700;23.124;2023-01-28T04:41:31;92371.63;;;0.89;100.00
10718;BME280;13513;42.700;23.124;2023-01-28T04:44:02;92369.50;;;0.95;100.00
10718;BME280;13513;42.700;23.124;2023-01-28T04:46:34;92374.02;;;0.91;100.00
10718;BME280;13513;42.700;23.124;2023-01-28T04:49:04;92377.41;;;0.91;100.00
10718;BME280;13513;42.700;23.124;2023-01-28T04:51:35;92377.20;;;0.93;100.00
10718;BME280;13513;42.700;23.124;2023-01-28T04:54:06;92373.63;;;0.81;100.00
10718;BME280;13513;42.700;23.124;2023-01-28T04:56:36;92381.22;;;0.82;100.00
10718;BME280;13513;42.700;23.124;2023-01-28T04:59:07;92381.52;;;0.64;100.00
10718;BME280;13513;42.700;23.124;2023-01-28T05:01:38;92387.21;;;0.44;100.00
10718;BME280;13513;42.700;23.124;2023-01-28T05:04:08;92380.52;;;0.52;100.00
10718;BME280;13513;42.700;23.124;2023-01-28T05:06:38;92389.52;;;0.49;100.00
10718;BME280;13513;42.700;23.124;2023-01-28T05:09:09;92382.44;;;0.47;100.00
10718;BME280;13513;42.700;23.124;2023-01-28T05:11:42;92390.03;;;0.49;100.00
10718;BME280;13513;42.700;23.124;2023-01-28T05:14:12;92386.53;;;0.39;100.00
10718;BME280;13513;42.700;23.124;2023-01-28T05:16:43;92388.02;;;0.38;100.00
10718;BME280;13513;42.700;23.124;2023-01-28T05:19:14;92390.42;;;0.39;100.00
10718;BME280;13513;42.700;23.124;2023-01-28T05:21:44;92388.41;;;0.28;100.00
10718;BME280;13513;42.700;23.124;2023-01-28T05:24:14;92396.40;;;0.33;100.00
10718;BME280;13513;42.700;23.124;2023-01-28T05:26:45;92393.41;;;0.36;100.00
10718;BME280;13513;42.700;23.124;2023-01-28T05:29:16;92397.46;;;0.15;100.00
10718;BME280;13513;42.700;23.124;2023-01-28T05:31:48;92405.16;;;0.13;100.00
10718;BME280;13513;42.700;23.124;2023-01-28T05:34:19;92406.36;;;0.23;100.00
10718;BME280;13513;42.700;23.124;2023-01-28T05:36:49;92406.83;;;0.03;100.00
10718;BME280;13513;42.700;23.124;2023-01-28T05:39:20;92402.55;;;0.06;100.00
10718;BME280;13513;42.700;23.124;2023-01-28T05:41:51;92405.62;;;0.05;100.00
10718;BME280;13513;42.700;23.124;2023-01-28T05:44:22;92415.97;;;0.23;100.00
10718;BME280;13513;42.700;23.124;2023-01-28T05:46:53;92414.77;;;0.25;100.00
10718;BME280;13513;42.700;23.124;2023-01-28T05:49:24;92413.77;;;0.33;100.00
10718;BME280;13513;42.700;23.124;2023-01-28T05:51:56;92420.64;;;0.17;100.00
10718;BME280;13513;42.700;23.124;2023-01-28T05:54:26;92424.73;;;0.15;100.00
10718;BME280;13513;42.700;23.124;2023-01-28T05:56:57;92425.46;;;0.33;100.00
10718;BME280;13513;42.700;23.124;2023-01-28T05:59:28;92429.49;;;0.42;100.00
10718;BME280;13513;42.700;23.124;2023-01-28T06:01:59;92432.28;;;0.34;100.00
10718;BME280;13513;42.700;23.124;2023-01-28T06:04:30;92429.98;;;0.41;100.00
10718;BME280;13513;42.700;23.124;2023-01-28T06:07:00;92425.16;;;0.25;100.00
10718;BME280;13513;42.700;23.124;2023-01-28T06:09:31;92427.75;;;0.19;100.00
10718;BME280;13513;42.700;23.124;2023-01-28T06:12:02;92428.48;;;0.30;100.00
10718;BME280;13513;42.700;23.124;2023-01-28T06:14:33;92431.75;;;0.28;100.00
10718;BME280;13513;42.700;23.124;2023-01-28T06:17:03;92439.06;;;0.28;100.00
10718;BME280;13513;42.700;23.124;2023-01-28T06:19:37;92440.45;;;0.24;100.00
10718;BME280;13513;42.700;23.124;2023-01-28T06:22:08;92445.56;;;0.35;100.00
10718;BME280;13513;42.700;23.124;2023-01-28T06:24:39;92448.75;;;0.37;100.00
10718;BME280;13513;42.700;23.124;2023-01-28T06:27:09;92457.26;;;0.41;100.00
10718;BME280;13513;42.700;23.124;2023-01-28T06:29:41;92457.35;;;0.37;100.00
10718;BME280;13513;42.700;23.124;2023-01-28T06:32:12;92459.08;;;0.41;100.00
10718;BME280;13513;42.700;23.124;2023-01-28T06:34:43;92461.68;;;0.47;100.00
10718;BME280;13513;42.700;23.124;2023-01-28T06:37:14;92466.35;;;0.41;100.00
10718;BME280;13513;42.700;23.124;2023-01-28T06:39:46;92472.89;;;0.54;100.00
10718;BME280;13513;42.700;23.124;2023-01-28T06:42:16;92469.19;;;0.53;100.00
10718;BME280;13513;42.700;23.124;2023-01-28T06:44:49;92472.80;;;0.71;100.00
10718;BME280;13513;42.700;23.124;2023-01-28T06:47:19;92482.58;;;0.63;100.00
10718;BME280;13513;42.700;23.124;2023-01-28T06:49:50;92482.38;;;0.51;100.00
10718;BME280;13513;42.700;23.124;2023-01-28T06:52:21;92492.05;;;0.53;100.00
10718;BME280;13513;42.700;23.124;2023-01-28T06:54:52;92499.46;;;0.56;100.00
10718;BME280;13513;42.700;23.124;2023-01-28T06:57:23;92499.28;;;0.64;100.00
10718;BME280;13513;42.700;23.124;2023-01-28T06:59:54;92502.69;;;0.71;100.00
10718;BME280;13513;42.700;23.124;2023-01-28T07:02:25;92503.91;;;0.88;100.00
10718;BME280;13513;42.700;23.124;2023-01-28T07:04:56;92502.30;;;0.74;100.00
10718;BME280;13513;42.700;23.124;2023-01-28T07:07:27;92505.62;;;0.92;100.00
10718;BME280;13513;42.700;23.124;2023-01-28T07:09:57;92507.11;;;1.03;100.00
10718;BME280;13513;42.700;23.124;2023-01-28T07:12:28;92512.64;;;1.04;100.00
10718;BME280;13513;42.700;23.124;2023-01-28T07:14:59;92517.32;;;1.05;100.00
10718;BME280;13513;42.700;23.124;2023-01-28T07:17:30;92518.23;;;1.01;100.00
10718;BME280;13513;42.700;23.124;2023-01-28T07:20:01;92526.33;;;0.89;100.00
10718;BME280;13513;42.700;23.124;2023-01-28T07:22:31;92531.10;;;0.92;100.00
10718;BME280;13513;42.700;23.124;2023-01-28T07:25:02;92526.42;;;0.92;100.00
10718;BME280;13513;42.700;23.124;2023-01-28T07:27:33;92528.14;;;1.08;100.00
10718;BME280;13513;42.700;23.124;2023-01-28T07:30:03;92533.92;;;1.23;100.00
10718;BME280;13513;42.700;23.124;2023-01-28T07:32:34;92531.95;;;1.12;100.00
10718;BME280;13513;42.700;23.124;2023-01-28T07:35:05;92540.30;;;0.88;100.00
10718;BME280;13513;42.700;23.124;2023-01-28T07:37:39;92541.73;;;1.10;100.00
10718;BME280;13513;42.700;23.124;2023-01-28T07:40:10;92541.54;;;1.18;100.00
10718;BME280;13513;42.700;23.124;2023-01-28T07:42:41;92537.95;;;1.32;100.00
10718;BME280;13513;42.700;23.124;2023-01-28T07:45:12;92542.55;;;1.43;100.00
10718;BME280;13513;42.700;23.124;2023-01-28T07:47:43;92550.26;;;1.47;100.00
10718;BME280;13513;42.700;23.124;2023-01-28T07:50:14;92550.73;;;1.73;100.00
10718;BME280;13513;42.700;23.124;2023-01-28T07:52:44;92549.58;;;1.91;100.00
10718;BME280;13513;42.700;23.124;2023-01-28T07:55:15;92557.73;;;1.85;100.00
10718;BME280;13513;42.700;23.124;2023-01-28T07:57:50;92563.34;;;1.82;100.00
10718;BME280;13513;42.700;23.124;2023-01-28T08:00:23;92562.72;;;1.93;100.00
10718;BME280;13513;42.700;23.124;2023-01-28T08:02:58;92559.90;;;2.01;100.00
10718;BME280;13513;42.700;23.124;2023-01-28T08:05:36;92564.36;;;2.10;100.00
10718;BME280;13513;42.700;23.124;2023-01-28T08:08:04;92565.84;;;2.21;100.00
10718;BME280;13513;42.700;23.124;2023-01-28T08:10:34;92576.95;;;2.32;100.00
10718;BME280;13513;42.700;23.124;2023-01-28T08:13:05;92578.63;;;2.36;99.09
10718;BME280;13513;42.700;23.124;2023-01-28T08:15:36;92580.11;;;2.47;98.95
10718;BME280;13513;42.700;23.124;2023-01-28T08:18:08;92579.67;;;2.57;98.25
10718;BME280;13513;42.700;23.124;2023-01-28T08:20:39;92584.13;;;2.65;98.00
10718;BME280;13513;42.700;23.124;2023-01-28T08:23:15;92590.57;;;2.85;95.48
10718;BME280;13513;42.700;23.124;2023-01-28T08:25:45;92591.67;;;2.86;95.12
10718;BME280;13513;42.700;23.124;2023-01-28T08:28:17;92597.12;;;2.78;95.08
10718;BME280;13513;42.700;23.124;2023-01-28T08:30:47;92593.80;;;2.80;94.95
10718;BME280;13513;42.700;23.124;2023-01-28T08:33:18;92600.52;;;2.85;95.39
10718;BME280;13513;42.700;23.124;2023-01-28T08:35:50;92591.09;;;3.00;94.50
10718;BME280;13513;42.700;23.124;2023-01-28T08:38:20;92593.45;;;3.23;93.24
10718;BME280;13513;42.700;23.124;2023-01-28T08:40:51;92596.36;;;3.40;92.38
10718;BME280;13513;42.700;23.124;2023-01-28T08:43:22;92599.81;;;3.49;91.54
10718;BME280;13513;42.700;23.124;2023-01-28T08:45:53;92600.09;;;3.66;90.63
10718;BME280;13513;42.700;23.124;2023-01-28T08:48:23;92603.88;;;3.54;91.01
10718;BME280;13513;42.700;23.124;2023-01-28T08:50:53;92604.83;;;3.51;90.67
10718;BME280;13513;42.700;23.124;2023-01-28T08:53:24;92605.30;;;3.57;90.75
10718;BME280;13513;42.700;23.124;2023-01-28T08:55:54;92599.85;;;3.27;91.02
10718;BME280;13513;42.700;23.124;2023-01-28T08:58:25;92599.56;;;3.26;92.93
10718;BME280;13513;42.700;23.124;2023-01-28T09:00:55;92604.75;;;3.48;91.80
10718;BME280;13513;42.700;23.124;2023-01-28T09:03:26;92604.23;;;3.64;90.34
10718;BME280;13513;42.700;23.124;2023-01-28T09:06:03;92596.06;;;3.79;90.00
10718;BME280;13513;42.700;23.124;2023-01-28T09:08:34;92606.42;;;3.67;89.61
10718;BME280;13513;42.700;23.124;2023-01-28T09:11:05;92605.28;;;3.81;88.76
10718;BME280;13513;42.700;23.124;2023-01-28T09:13:37;92603.67;;;3.71;88.72
10718;BME280;13513;42.700;23.124;2023-01-28T09:16:10;92607.25;;;3.77;89.50
10718;BME280;13513;42.700;23.124;2023-01-28T09:18:41;92605.42;;;3.77;88.99
10718;BME280;13513;42.700;23.124;2023-01-28T09:21:12;92603.59;;;3.53;89.72
10718;BME280;13513;42.700;23.124;2023-01-28T09:23:44;92599.78;;;3.40;90.18
10718;BME280;13513;42.700;23.124;2023-01-28T09:26:14;92607.52;;;3.22;91.60
10718;BME280;13513;42.700;23.124;2023-01-28T09:28:48;92603.61;;;3.22;92.62
10718;BME280;13513;42.700;23.124;2023-01-28T09:31:19;92600.37;;;3.27;92.01
10718;BME280;13513;42.700;23.124;2023-01-28T09:33:50;92599.96;;;3.30;92.43
10718;BME280;13513;42.700;23.124;2023-01-28T09:36:21;92607.06;;;3.32;92.78
10718;BME280;13513;42.700;23.124;2023-01-28T09:38:52;92600.57;;;3.56;92.31
10718;BME280;13513;42.700;23.124;2023-01-28T09:41:28;92597.22;;;3.34;93.10
10718;BME280;13513;42.700;23.124;2023-01-28T09:44:10;92600.94;;;3.60;92.32
10718;BME280;13513;42.700;23.124;2023-01-28T09:46:36;92594.74;;;3.70;91.80
10718;BME280;13513;42.700;23.124;2023-01-28T09:49:39;92600.09;;;3.66;91.70
10718;BME280;13513;42.700;23.124;2023-01-28T09:52:12;92597.69;;;3.80;91.36
10718;BME280;13513;42.700;23.124;2023-01-28T09:54:52;92595.48;;;4.01;90.31
10718;BME280;13513;42.700;23.124;2023-01-28T09:57:22;92595.89;;;4.23;88.94
10718;BME280;13513;42.700;23.124;2023-01-28T09:59:56;92599.09;;;4.43;88.43
10718;BME280;13513;42.700;23.124;2023-01-28T10:05:41;92593.13;;;4.45;86.10
10718;BME280;13513;42.700;23.124;2023-01-28T10:14:34;92593.52;;;4.40;86.24
10718;BME280;13513;42.700;23.124;2023-01-28T10:16:36;92588.64;;;4.34;85.35
10718;BME280;13513;42.700;23.124;2023-01-28T10:19:00;92588.11;;;4.34;85.95
10718;BME280;13513;42.700;23.124;2023-01-28T10:21:33;92584.97;;;4.17;87.98
10718;BME280;13513;42.700;23.124;2023-01-28T10:24:17;92587.54;;;4.42;87.20
10718;BME280;13513;42.700;23.124;2023-01-28T10:26:47;92585.94;;;4.50;86.11
10718;BME280;13513;42.700;23.124;2023-01-28T10:29:26;92586.16;;;4.48;85.71
10718;BME280;13513;42.700;23.124;2023-01-28T10:32:15;92587.33;;;4.43;85.59
10718;BME280;13513;42.700;23.124;2023-01-28T10:34:30;92588.78;;;4.30;86.00
10718;BME280;13513;42.700;23.124;2023-01-28T10:37:02;92592.48;;;4.41;85.00
10718;BME280;13513;42.700;23.124;2023-01-28T10:39:34;92594.89;;;4.42;85.98
10718;BME280;13513;42.700;23.124;2023-01-28T10:44:59;92584.14;;;4.50;84.80
10718;BME280;13513;42.700;23.124;2023-01-28T10:47:30;92590.73;;;4.34;85.16
10718;BME280;13513;42.700;23.124;2023-01-28T10:49:58;92586.83;;;4.44;84.24
10718;BME280;13513;42.700;23.124;2023-01-28T10:52:31;92584.86;;;4.30;85.69
10718;BME280;13513;42.700;23.124;2023-01-28T10:55:04;92591.98;;;4.50;86.14
10718;BME280;13513;42.700;23.124;2023-01-28T10:57:34;92587.33;;;4.43;85.13
10718;BME280;13513;42.700;23.124;2023-01-28T11:00:25;92593.37;;;4.44;85.66
10718;BME280;13513;42.700;23.124;2023-01-28T11:02:55;92595.69;;;4.79;84.50
10718;BME280;13513;42.700;23.124;2023-01-28T11:05:29;92590.72;;;4.98;81.89
10718;BME280;13513;42.700;23.124;2023-01-28T11:08:14;92592.48;;;4.50;81.39
10718;BME280;13513;42.700;23.124;2023-01-28T11:10:46;92592.41;;;4.56;84.39
10718;BME280;13513;42.700;23.124;2023-01-28T11:13:20;92594.51;;;4.84;83.79
10718;BME280;13513;42.700;23.124;2023-01-28T11:15:54;92589.45;;;5.09;81.83
10718;BME280;13513;42.700;23.124;2023-01-28T11:18:27;92594.16;;;4.80;81.52
10718;BME280;13513;42.700;23.124;2023-01-28T11:20:59;92592.22;;;5.05;80.52
10718;BME280;13513;42.700;23.124;2023-01-28T11:23:31;92592.22;;;5.05;80.52
10718;BME280;13513;42.700;23.124;2023-01-28T11:26:08;92592.96;;;4.94;81.17
10718;BME280;13513;42.700;23.124;2023-01-28T11:28:40;92588.20;;;5.12;79.27
10718;BME280;13513;42.700;23.124;2023-01-28T11:31:17;92588.20;;;5.12;79.27
10718;BME280;13513;42.700;23.124;2023-01-28T11:33:59;92593.66;;;5.19;78.69
10718;BME280;13513;42.700;23.124;2023-01-28T11:36:27;92591.23;;;5.27;79.24
10718;BME280;13513;42.700;23.124;2023-01-28T11:38:59;92589.44;;;5.39;78.13
10718;BME280;13513;42.700;23.124;2023-01-28T11:41:36;92595.64;;;4.97;78.92
10718;BME280;13513;42.700;23.124;2023-01-28T11:44:24;92588.20;;;5.12;79.27
10718;BME280;13513;42.700;23.124;2023-01-28T11:47:04;92584.71;;;5.09;79.95
10718;BME280;13513;42.700;23.124;2023-01-28T11:52:35;92579.97;;;5.26;78.40
10718;BME280;13513;42.700;23.124;2023-01-28T12:01:11;92589.55;;;5.53;77.02
10718;BME280;13513;42.700;23.124;2023-01-28T12:06:53;92585.89;;;5.33;77.15
10718;BME280;13513;42.700;23.124;2023-01-28T12:15:20;92585.42;;;5.16;78.02
10718;BME280;13513;42.700;23.124;2023-01-28T12:40:18;92586.85;;;4.91;79.25
10718;BME280;13513;42.700;23.124;2023-01-28T12:42:59;92586.85;;;4.91;79.25
10718;BME280;13513;42.700;23.124;2023-01-28T12:45:26;92582.19;;;5.02;79.89
10718;BME280;13513;42.700;23.124;2023-01-28T12:50:46;92589.64;;;5.26;78.47
10718;BME280;13513;42.700;23.124;2023-01-28T12:53:35;92590.25;;;5.39;77.09
10718;BME280;13513;42.700;23.124;2023-01-28T12:56:08;92593.09;;;5.38;77.96
10718;BME280;13513;42.700;23.124;2023-01-28T12:58:59;92593.09;;;5.38;77.96
10718;BME280;13513;42.700;23.124;2023-01-28T13:06:54;92602.06;;;5.51;76.48
10718;BME280;13513;42.700;23.124;2023-01-28T13:09:25;92602.06;;;5.51;76.48
10718;BME280;13513;42.700;23.124;2023-01-28T13:11:58;92604.62;;;5.48;75.33
10718;BME280;13513;42.700;23.124;2023-01-28T13:14:32;92604.62;;;5.48;75.33
10718;BME280;13513;42.700;23.124;2023-01-28T13:17:29;92609.73;;;5.43;76.41
10718;BME280;13513;42.700;23.124;2023-01-28T13:19:59;92607.72;;;5.36;77.21
10718;BME280;13513;42.700;23.124;2023-01-28T13:22:32;92612.89;;;5.34;77.03
10718;BME280;13513;42.700;23.124;2023-01-28T13:25:23;92612.08;;;5.33;77.36
10718;BME280;13513;42.700;23.124;2023-01-28T13:28:05;92610.18;;;5.40;77.70
10718;BME280;13513;42.700;23.124;2023-01-28T13:30:46;92614.76;;;5.45;76.44
10718;BME280;13513;42.700;23.124;2023-01-28T13:33:24;92620.38;;;5.39;77.11
10718;BME280;13513;42.700;23.124;2023-01-28T13:35:39;92631.98;;;5.05;78.23
10718;BME280;13513;42.700;23.124;2023-01-28T13:38:20;92634.34;;;4.77;80.90
10718;BME280;13513;42.700;23.124;2023-01-28T13:40:57;92632.21;;;4.40;82.04
10718;BME280;13513;42.700;23.124;2023-01-28T13:43:36;92639.64;;;4.09;83.56
10718;BME280;13513;42.700;23.124;2023-01-28T13:46:11;92646.30;;;3.81;86.06
10718;BME280;13513;42.700;23.124;2023-01-28T13:48:51;92643.33;;;3.62;87.58
10718;BME280;13513;42.700;23.124;2023-01-28T13:51:30;92647.22;;;3.53;88.92
10718;BME280;13513;42.700;23.124;2023-01-28T13:54:18;92644.17;;;3.40;89.58
10718;BME280;13513;42.700;23.124;2023-01-28T13:57:11;92654.34;;;3.17;90.64
10718;BME280;13513;42.700;23.124;2023-01-28T13:59:48;92657.03;;;2.98;92.06
10718;BME280;13513;42.700;23.124;2023-01-28T14:02:48;92662.65;;;3.01;93.36
10718;BME280;13513;42.700;23.124;2023-01-28T14:05:30;92663.31;;;3.06;93.36
10718;BME280;13513;42.700;23.124;2023-01-28T14:08:24;92664.86;;;3.20;93.13
10718;BME280;13513;42.700;23.124;2023-01-28T14:11:04;92666.41;;;3.34;92.57
10718;BME280;13513;42.700;23.124;2023-01-28T14:13:44;92671.83;;;3.48;91.96
10718;BME280;13513;42.700;23.124;2023-01-28T14:16:36;92666.30;;;3.31;91.58
10718;BME280;13513;42.700;23.124;2023-01-28T14:19:05;92672.93;;;3.12;91.92
10718;BME280;13513;42.700;23.124;2023-01-28T14:21:36;92681.52;;;2.97;90.67
10718;BME280;13513;42.700;23.124;2023-01-28T14:24:15;92682.25;;;2.95;92.32
10718;BME280;13513;42.700;23.124;2023-01-28T14:29:46;92682.69;;;2.85;92.82
10718;BME280;13513;42.700;23.124;2023-01-28T14:32:18;92686.80;;;2.77;93.67
10718;BME280;13513;42.700;23.124;2023-01-28T14:34:49;92694.73;;;2.73;94.21
10718;BME280;13513;42.700;23.124;2023-01-28T14:37:27;92692.22;;;2.82;93.12
10718;BME280;13513;42.700;23.124;2023-01-28T14:40:06;92695.03;;;2.81;93.51
10718;BME280;13513;42.700;23.124;2023-01-28T14:42:41;92691.00;;;2.85;95.28